Time;durP1;ratioP1;P1;durP2;ratioP2;P2;SDS_P1;SDS_P2;PMS_P1;PMS_P2;Temp;Humidity;BMP_temperature;BMP_pressure;BME280_temperature;BME280_humidity;BME280_pressure;Samples;Min_cycle;Max_cycle;Signal;HPM_P1;HPM_P2
2023/07/18 00:00:14;;;;;;;16.25;12.98;;;;;;;-143.21;59.77;71055.06;5118786;27;20238;-79
2023/07/18 00:02:42;;;;;;;18.52;13.07;;;;;;;-143.21;59.10;71049.09;5112422;27;20223;-79
2023/07/18 00:05:12;;;;;;;16.73;12.80;;;;;;;-143.21;58.82;71055.06;5123556;27;20662;-80
2023/07/18 00:07:40;;;;;;;18.00;13.13;;;;;;;-143.21;59.84;71064.97;5116411;27;20215;-79
2023/07/18 00:10:10;;;;;;;19.83;13.82;;;;;;;-143.21;60.45;71080.81;5109678;27;20200;-80
2023/07/18 00:12:37;;;;;;;20.85;14.60;;;;;;;-143.21;61.32;71080.81;5119834;27;20195;-80
2023/07/18 00:15:06;;;;;;;16.98;13.00;;;;;;;-143.21;59.95;71086.75;5115809;27;20203;-79
2023/07/18 00:17:34;;;;;;;17.92;14.05;;;;;;;-143.21;60.27;71074.88;5115898;27;20211;-78
2023/07/18 00:20:01;;;;;;;15.60;12.95;;;;;;;-143.21;59.13;71072.88;5118365;27;20199;-78
2023/07/18 00:22:27;;;;;;;15.35;12.95;;;;;;;-143.21;60.26;71078.84;5118169;27;20213;-76
2023/07/18 00:24:54;;;;;;;21.70;13.93;;;;;;;-143.21;60.55;71074.88;5125401;27;20199;-75
2023/07/18 00:27:22;;;;;;;16.20;13.80;;;;;;;-143.21;61.20;71072.88;5118357;27;20208;-76
2023/07/18 00:29:50;;;;;;;17.48;13.95;;;;;;;-143.21;60.76;71086.75;5116606;27;20204;-76
2023/07/18 00:32:17;;;;;;;18.33;14.02;;;;;;;-143.21;61.28;71078.84;5126368;27;20227;-76
2023/07/18 00:34:44;;;;;;;16.63;13.77;;;;;;;-143.21;62.06;71078.84;5122598;27;20227;-76
2023/07/18 00:37:11;;;;;;;18.55;13.38;;;;;;;-143.21;61.46;71090.72;5120100;27;20253;-76
2023/07/18 00:39:38;;;;;;;18.27;13.60;;;;;;;-143.21;61.95;71088.75;5116137;27;20545;-76
2023/07/18 00:42:05;;;;;;;20.77;14.55;;;;;;;-143.21;61.60;71086.75;5115670;27;20210;-76
2023/07/18 00:44:33;;;;;;;19.48;13.20;;;;;;;-143.21;61.76;71088.75;5121192;27;20593;-77
2023/07/18 00:47:02;;;;;;;14.32;12.35;;;;;;;-143.21;61.36;71090.72;5111961;27;20211;-77
2023/07/18 00:49:29;;;;;;;15.38;13.32;;;;;;;-143.21;61.23;71088.75;5119566;27;20204;-77
2023/07/18 00:51:57;;;;;;;18.15;13.65;;;;;;;-143.21;61.44;71086.75;5120274;27;20263;-78
2023/07/18 00:54:25;;;;;;;16.65;13.82;;;;;;;-143.21;61.28;71094.69;5119040;27;20224;-78
2023/07/18 00:56:52;;;;;;;30.88;13.55;;;;;;;-143.21;61.52;71096.69;5121982;27;20204;-76
2023/07/18 00:59:19;;;;;;;16.45;13.18;;;;;;;-143.21;61.18;71092.72;5111602;27;20253;-77
2023/07/18 01:01:48;;;;;;;19.35;13.57;;;;;;;-143.21;61.20;71088.75;5119787;27;20203;-77
2023/07/18 01:04:15;;;;;;;17.30;13.90;;;;;;;-143.21;61.22;71090.72;5113829;27;20647;-76
2023/07/18 01:06:42;;;;;;;23.58;15.02;;;;;;;-143.21;61.60;71090.72;5113366;27;20693;-77
2023/07/18 01:09:09;;;;;;;30.42;18.55;;;;;;;-143.21;61.82;71088.75;5111177;27;20907;-77
2023/07/18 01:11:36;;;;;;;23.52;14.50;;;;;;;-143.21;62.10;71098.66;5118498;27;20225;-77
2023/07/18 01:14:03;;;;;;;21.42;16.50;;;;;;;-143.21;61.94;71108.56;5121411;27;20285;-76
2023/07/18 01:16:30;;;;;;;26.98;20.67;;;;;;;-143.21;62.53;71110.56;5128096;27;20296;-77
2023/07/18 01:18:58;;;;;;;30.35;19.42;;;;;;;-143.21;62.88;71106.59;5115801;27;20208;-77
2023/07/18 01:21:27;;;;;;;28.10;20.45;;;;;;;-143.21;62.94;71110.56;5120321;27;20207;-76
2023/07/18 01:23:54;;;;;;;25.45;18.70;;;;;;;-143.21;63.30;71110.56;5126741;27;20570;-76
2023/07/18 01:26:21;;;;;;;27.52;18.42;;;;;;;-143.21;63.07;71114.53;5113956;27;20253;-76
2023/07/18 01:28:48;;;;;;;25.52;17.17;;;;;;;-143.21;63.30;71110.56;5110972;27;20200;-76
2023/07/18 01:31:15;;;;;;;17.63;15.48;;;;;;;-143.21;63.17;71108.56;5118832;27;20673;-76
2023/07/18 01:33:44;;;;;;;18.05;15.30;;;;;;;-143.21;63.21;71108.56;5120987;27;20310;-76
2023/07/18 01:36:11;;;;;;;20.58;15.27;;;;;;;-143.21;63.06;71114.53;5114371;27;20200;-76
2023/07/18 01:38:39;;;;;;;22.02;14.48;;;;;;;-143.21;63.21;71112.53;5114553;27;20287;-76
2023/07/18 01:41:07;;;;;;;21.17;15.00;;;;;;;-143.21;63.10;71122.44;5107946;27;20196;-76
2023/07/18 01:43:34;;;;;;;20.70;15.50;;;;;;;-143.21;63.12;71130.38;5117861;27;20195;-76
2023/07/18 01:46:02;;;;;;;17.38;14.95;;;;;;;-143.21;63.44;71128.41;5114541;27;20208;-76
2023/07/18 01:48:29;;;;;;;20.67;16.17;;;;;;;-143.21;63.36;71124.44;5116835;27;20235;-76
2023/07/18 01:50:55;;;;;;;18.92;14.82;;;;;;;-143.21;63.30;71132.38;5121961;27;20239;-76
2023/07/18 01:53:22;;;;;;;23.73;15.68;;;;;;;-143.21;63.26;71134.34;5118342;27;20215;-77
2023/07/18 01:55:50;;;;;;;18.23;14.77;;;;;;;-143.21;63.65;71146.25;5118655;27;20211;-77
2023/07/18 01:58:17;;;;;;;17.08;14.20;;;;;;;-143.21;63.88;71144.25;5112452;27;20688;-77
2023/07/18 02:00:44;;;;;;;18.80;14.75;;;;;;;-143.21;63.81;71146.25;5118026;27;20192;-78
2023/07/18 02:03:13;;;;;;;22.35;14.95;;;;;;;-143.21;64.07;71152.19;5117753;27;20219;-78
2023/07/18 02:05:39;;;;;;;21.60;15.85;;;;;;;-143.21;64.25;71162.09;5121213;27;20203;-79
2023/07/18 02:08:06;;;;;;;22.30;16.45;;;;;;;-143.21;65.08;71181.94;5114975;27;20695;-78
2023/07/18 02:10:33;;;;;;;27.42;19.90;;;;;;;-143.21;64.70;71187.88;5111020;27;20200;-78
2023/07/18 02:13:03;;;;;;;36.17;24.50;;;;;;;-143.21;65.38;71201.75;5116858;27;20199;-78
2023/07/18 02:15:29;;;;;;;32.92;27.13;;;;;;;-143.21;65.77;71199.78;5114254;27;20327;-77
2023/07/18 02:17:57;;;;;;;38.42;27.45;;;;;;;-143.21;65.80;71197.78;5117608;27;20303;-78
2023/07/18 02:20:24;;;;;;;37.42;27.27;;;;;;;-143.21;65.81;71197.78;5121316;27;20637;-78
2023/07/18 02:22:51;;;;;;;33.20;25.98;;;;;;;-143.21;65.65;71201.75;5116513;27;20203;-78
2023/07/18 02:25:18;;;;;;;36.50;27.55;;;;;;;-143.21;65.89;71195.81;5113087;27;20196;-78
2023/07/18 02:27:45;;;;;;;32.92;26.27;;;;;;;-143.21;65.80;71187.88;5118294;27;20207;-78
2023/07/18 02:30:15;;;;;;;31.25;24.85;;;;;;;-143.21;65.93;71197.78;5113013;27;20276;-78
2023/07/18 02:32:42;;;;;;;33.00;26.35;;;;;;;-143.21;65.99;71201.75;5110119;28;20204;-78
2023/07/18 02:35:10;;;;;;;33.28;24.73;;;;;;;-143.21;66.14;71205.72;5112975;27;20224;-79
2023/07/18 02:37:37;;;;;;;29.65;21.92;;;;;;;-143.21;65.94;71205.72;5113940;27;20199;-78
2023/07/18 02:40:08;;;;;;;24.40;20.35;;;;;;;-143.21;66.11;71207.69;5113673;27;20199;-78
2023/07/18 02:42:35;;;;;;;26.42;19.15;;;;;;;-143.21;65.88;71219.59;5117114;27;20206;-78
2023/07/18 02:45:02;;;;;;;21.80;16.98;;;;;;;-143.21;66.49;71229.50;5112807;27;20195;-78
2023/07/18 02:47:31;;;;;;;21.88;16.35;;;;;;;-143.21;66.27;71227.53;5110056;27;20917;-77
2023/07/18 02:49:57;;;;;;;21.05;17.55;;;;;;;-143.21;66.17;71227.53;5113508;27;20242;-76
2023/07/18 02:52:24;;;;;;;20.98;17.95;;;;;;;-143.21;66.17;71231.50;5120163;27;20192;-80
2023/07/18 02:54:51;;;;;;;24.20;17.38;;;;;;;-143.21;66.48;71241.41;5113692;27;20296;-80
2023/07/18 02:57:18;;;;;;;24.13;17.40;;;;;;;-143.21;67.00;71251.31;5119704;27;20211;-77
2023/07/18 02:59:45;;;;;;;21.70;17.05;;;;;;;-143.21;67.21;71257.25;5117021;27;20211;-80
2023/07/18 03:02:12;;;;;;;23.25;18.20;;;;;;;-143.21;67.51;71263.22;5109597;28;20286;-80
2023/07/18 03:04:40;;;;;;;22.73;16.65;;;;;;;-143.21;67.65;71261.22;5116471;27;20199;-80
2023/07/18 03:07:07;;;;;;;25.80;19.17;;;;;;;-143.21;67.77;71253.28;5106907;28;20256;-78
2023/07/18 03:09:34;;;;;;;27.45;19.80;;;;;;;-143.21;67.91;71253.28;5116556;28;20276;-79
2023/07/18 03:12:01;;;;;;;31.77;20.08;;;;;;;-143.21;67.62;71247.34;5119951;28;20615;-78
2023/07/18 03:14:28;;;;;;;27.10;19.02;;;;;;;-143.21;67.36;71237.44;5117053;27;20606;-79
2023/07/18 03:16:55;;;;;;;27.67;18.77;;;;;;;-143.21;67.50;71231.50;5119167;28;20203;-79
2023/07/18 03:19:22;;;;;;;22.58;17.63;;;;;;;-143.21;67.28;71229.50;5120887;28;20207;-78
2023/07/18 03:21:50;;;;;;;25.45;17.48;;;;;;;-143.21;67.50;71239.41;5120234;27;20221;-79
2023/07/18 03:24:17;;;;;;;32.55;18.98;;;;;;;-143.21;67.92;71253.28;5116324;28;20222;-78
2023/07/18 03:26:44;;;;;;;21.60;17.65;;;;;;;-143.21;67.89;71253.28;5117030;28;20253;-78
2023/07/18 03:29:12;;;;;;;25.58;16.38;;;;;;;-143.21;68.26;71259.25;5113226;28;20226;-77
2023/07/18 03:31:40;;;;;;;30.90;18.40;;;;;;;-143.21;68.22;71267.19;5119727;27;20204;-78
2023/07/18 03:34:07;;;;;;;24.77;18.15;;;;;;;-143.21;68.63;71273.13;5113762;28;20215;-77
2023/07/18 03:36:35;;;;;;;26.65;16.92;;;;;;;-143.21;68.59;71267.19;5115945;28;20196;-77
2023/07/18 03:39:03;;;;;;;22.42;17.20;;;;;;;-143.21;68.28;71269.16;5108768;28;20203;-78
2023/07/18 03:41:30;;;;;;;24.50;17.48;;;;;;;-143.21;68.30;71269.16;5121961;28;20233;-78
2023/07/18 03:43:57;;;;;;;24.23;17.40;;;;;;;-143.21;68.26;71275.09;5121607;28;20216;-78
2023/07/18 03:46:24;;;;;;;24.30;17.17;;;;;;;-143.21;68.15;71275.09;5113363;27;20206;-78
2023/07/18 03:48:51;;;;;;;26.25;18.02;;;;;;;-143.21;68.82;71279.06;5123661;28;20207;-78
2023/07/18 03:51:18;;;;;;;34.40;16.88;;;;;;;-143.21;68.12;71271.13;5116864;28;20770;-77
2023/07/18 03:53:45;;;;;;;23.55;17.20;;;;;;;-143.21;67.18;71269.16;5114989;27;20598;-78
2023/07/18 03:56:15;;;;;;;22.25;16.70;;;;;;;-143.21;66.98;71269.16;5112743;28;20207;-78
2023/07/18 03:58:41;;;;;;;25.35;16.40;;;;;;;-143.21;66.87;71279.06;5125375;28;20203;-78
2023/07/18 04:01:09;;;;;;;20.80;16.40;;;;;;;-143.21;67.38;71294.94;5109021;28;20204;-78
2023/07/18 04:03:37;;;;;;;20.92;16.40;;;;;;;-143.21;67.53;71302.84;5120145;28;20200;-78
2023/07/18 04:06:05;;;;;;;24.33;17.02;;;;;;;-143.21;67.53;71304.84;5126941;28;20195;-78
2023/07/18 04:08:32;;;;;;;28.33;17.13;;;;;;;-143.21;67.76;71308.81;5119471;28;20219;-78
2023/07/18 04:11:00;;;;;;;19.40;17.33;;;;;;;-143.21;68.18;71312.78;5115973;28;20208;-78
2023/07/18 04:13:28;;;;;;;26.73;17.98;;;;;;;-143.21;68.32;71316.75;5118363;28;20703;-79
2023/07/18 04:15:55;;;;;;;21.20;17.30;;;;;;;-143.21;68.45;71320.69;5109875;28;20224;-79
2023/07/18 04:18:22;;;;;;;22.88;17.83;;;;;;;-143.21;68.77;71326.66;5124586;28;20302;-78
2023/07/18 04:20:50;;;;;;;29.77;18.55;;;;;;;-143.21;68.88;71326.66;5118879;27;20689;-79
2023/07/18 04:23:17;;;;;;;24.80;18.15;;;;;;;-143.21;69.25;71318.72;5119500;27;20290;-79
2023/07/18 04:25:58;;;;;;;23.58;18.45;;;;;;;-143.21;68.74;71306.81;5113324;27;20646;-79
2023/07/18 04:28:25;;;;;;;28.25;19.55;;;;;;;-143.21;68.62;71304.84;5115234;27;20658;-79
2023/07/18 04:30:53;;;;;;;29.25;19.52;;;;;;;-143.21;67.50;71288.97;5116054;27;20576;-79
2023/07/18 04:33:20;;;;;;;26.35;18.63;;;;;;;-143.21;67.92;71287.00;5127471;27;20733;-79
2023/07/18 04:35:47;;;;;;;28.58;19.75;;;;;;;-143.21;67.79;71285.03;5121138;27;20223;-78
2023/07/18 04:38:14;;;;;;;33.70;19.10;;;;;;;-143.21;68.01;71292.94;5116604;27;20219;-79
2023/07/18 04:40:42;;;;;;;26.83;19.88;;;;;;;-143.21;68.40;71302.84;5112005;27;20610;-79
2023/07/18 04:43:09;;;;;;;30.75;20.45;;;;;;;-143.21;68.83;71306.81;5122366;27;20199;-79
2023/07/18 04:45:41;;;;;;;26.10;21.05;;;;;;;-143.21;68.54;71306.81;5122913;27;20205;-79
2023/07/18 04:48:14;;;;;;;32.75;21.17;;;;;;;-143.21;68.55;71302.84;5116233;27;20214;-79
2023/07/18 04:50:41;;;;;;;30.60;20.17;;;;;;;-143.21;69.17;71296.91;5112479;27;20301;-79
2023/07/18 04:53:08;;;;;;;31.02;20.67;;;;;;;-143.21;68.92;71288.97;5119177;27;20199;-79
2023/07/18 04:55:35;;;;;;;29.30;20.80;;;;;;;-143.21;68.76;71279.06;5121178;27;20312;-80
2023/07/18 04:58:03;;;;;;;34.30;21.38;;;;;;;-143.21;68.57;71271.13;5111259;27;20286;-79
2023/07/18 05:00:31;;;;;;;24.65;19.63;;;;;;;-143.21;67.88;71265.19;5122653;27;20775;-79
2023/07/18 05:02:59;;;;;;;29.02;19.33;;;;;;;-143.21;67.79;71261.22;5122759;27;20196;-79
2023/07/18 05:05:27;;;;;;;29.92;20.05;;;;;;;-143.21;67.56;71247.34;5120583;27;20797;-81
2023/07/18 05:07:55;;;;;;;26.02;19.55;;;;;;;-143.21;67.40;71247.34;5112489;27;20203;-79
2023/07/18 05:10:22;;;;;;;28.45;19.65;;;;;;;-143.21;67.29;71223.56;5116696;27;20204;-79
2023/07/18 05:12:50;;;;;;;31.25;20.20;;;;;;;-143.21;66.39;71189.84;5114081;27;20217;-79
2023/07/18 05:15:17;;;;;;;27.63;19.80;;;;;;;-143.21;65.24;71174.00;5114563;27;20227;-81
2023/07/18 05:17:44;;;;;;;27.70;19.10;;;;;;;-143.21;65.05;71164.09;5113877;27;20665;-82
2023/07/18 05:20:11;;;;;;;27.33;19.35;;;;;;;-143.21;65.19;71170.03;5125747;27;20199;-82
2023/07/18 05:22:40;;;;;;;27.45;20.50;;;;;;;-143.21;65.14;71166.06;5112150;27;20203;-80
2023/07/18 05:25:09;;;;;;;30.30;19.17;;;;;;;-143.21;65.33;71162.09;5114092;27;20256;-80
2023/07/18 05:27:36;;;;;;;28.55;19.98;;;;;;;-143.21;65.43;71156.16;5111992;27;20577;-81
2023/07/18 05:30:05;;;;;;;26.33;18.17;;;;;;;-143.21;64.59;71146.25;5116813;27;20199;-81
2023/07/18 05:32:33;;;;;;;25.30;18.05;;;;;;;-143.21;63.93;71142.28;5114009;27;20958;-79
2023/07/18 05:35:00;;;;;;;25.10;17.27;;;;;;;-143.21;63.80;71138.31;5111040;27;20228;-80
2023/07/18 05:37:29;;;;;;;22.70;16.33;;;;;;;-143.21;61.63;71132.38;5121476;27;20273;-79
2023/07/18 05:39:57;;;;;;;23.73;17.35;;;;;;;-143.21;62.62;71114.53;5113805;27;20283;-81
2023/07/18 05:42:24;;;;;;;26.38;16.67;;;;;;;-143.21;61.67;71090.72;5115057;27;20215;-79
2023/07/18 05:44:51;;;;;;;22.83;16.33;;;;;;;-143.21;61.46;71074.88;5109770;28;20204;-80
2023/07/18 05:47:17;;;;;;;21.98;15.77;;;;;;;-143.21;61.15;71068.94;5112394;27;20207;-80
2023/07/18 05:49:44;;;;;;;17.52;15.35;;;;;;;-143.21;60.57;71070.91;5116028;27;20592;-79
2023/07/18 05:52:11;;;;;;;23.77;15.07;;;;;;;-143.21;59.30;71072.88;5119897;27;20199;-80
2023/07/18 05:54:38;;;;;;;19.40;14.50;;;;;;;-143.21;58.97;71068.94;5120014;27;20196;-80
2023/07/18 05:57:07;;;;;;;18.30;14.18;;;;;;;-143.21;58.84;71072.88;5107740;27;20253;-79
2023/07/18 05:59:34;;;;;;;20.52;15.18;;;;;;;-143.21;59.46;71070.91;5120688;27;20659;-79
2023/07/18 06:02:03;;;;;;;21.83;15.75;;;;;;;-143.21;59.63;71066.94;5117559;27;20196;-80
2023/07/18 06:04:30;;;;;;;19.25;15.75;;;;;;;-143.21;60.22;71064.97;5115719;27;20204;-79
2023/07/18 06:06:57;;;;;;;25.88;16.10;;;;;;;-143.21;61.10;71062.97;5110934;27;20219;-79
2023/07/18 06:09:24;;;;;;;28.52;17.40;;;;;;;-143.21;61.30;71055.06;5109515;27;20204;-80
2023/07/18 06:11:51;;;;;;;22.23;18.33;;;;;;;-143.21;61.07;71055.06;5112847;27;20231;-80
2023/07/18 06:14:19;;;;;;;23.20;17.23;;;;;;;-143.21;60.79;71041.16;5109366;28;20874;-81
2023/07/18 06:16:47;;;;;;;27.25;17.30;;;;;;;-143.21;60.07;71029.28;5109856;28;20216;-81
2023/07/18 06:19:15;;;;;;;20.40;17.17;;;;;;;-143.21;59.26;71003.50;5113657;27;20203;-80
2023/07/18 06:21:42;;;;;;;21.60;16.83;;;;;;;-143.21;59.02;70993.59;5109688;28;20207;-78
2023/07/18 06:24:09;;;;;;;23.75;18.45;;;;;;;-143.21;59.63;70987.66;5109869;28;20656;-79
2023/07/18 06:26:36;;;;;;;25.50;17.80;;;;;;;-143.21;59.68;70979.72;5113142;27;20192;-81
2023/07/18 06:29:03;;;;;;;25.23;16.58;;;;;;;-143.21;56.44;70967.81;5113558;27;20294;-79
2023/07/18 06:31:33;;;;;;;26.20;17.45;;;;;;;-143.21;59.44;70965.84;5112097;27;20203;-78
2023/07/18 06:33:59;;;;;;;30.10;18.55;;;;;;;-143.21;59.85;70963.84;5116484;27;20939;-79
2023/07/18 06:36:26;;;;;;;25.58;19.90;;;;;;;-143.21;59.73;70957.91;5112256;27;20235;-78
2023/07/18 06:39:02;;;;;;;29.17;18.70;;;;;;;-143.21;59.92;70961.88;5109366;28;20284;-79
2023/07/18 06:41:29;;;;;;;25.90;18.58;;;;;;;-143.21;60.15;70953.94;5112563;27;20220;-79
2023/07/18 06:43:56;;;;;;;28.77;19.48;;;;;;;-143.21;59.52;70948.00;5114441;27;20697;-79
2023/07/18 06:46:23;;;;;;;21.45;18.92;;;;;;;-143.21;59.84;70934.13;5117040;27;20196;-79
2023/07/18 06:48:52;;;;;;;30.70;18.60;;;;;;;-143.21;59.55;70928.19;5112721;27;20194;-78
2023/07/18 06:51:19;;;;;;;29.90;18.42;;;;;;;-143.21;59.13;70916.28;5109658;27;20746;-78
2023/07/18 06:53:46;;;;;;;24.50;17.65;;;;;;;-143.21;57.37;70916.28;5111630;28;20604;-78
2023/07/18 06:56:13;;;;;;;25.63;18.90;;;;;;;-143.21;59.03;70900.41;5108775;28;20220;-79
2023/07/18 06:58:41;;;;;;;22.60;16.80;;;;;;;-143.21;55.69;70900.41;5112293;27;20704;-79
2023/07/18 07:01:10;;;;;;;25.17;18.52;;;;;;;-143.21;59.45;70878.63;5112410;27;20374;-78
2023/07/18 07:03:37;;;;;;;27.08;20.23;;;;;;;-143.21;58.46;70874.66;5110378;27;20203;-78
2023/07/18 07:06:11;;;;;;;27.17;16.83;;;;;;;-143.21;57.20;70882.59;5112702;28;20204;-79
2023/07/18 07:08:38;;;;;;;23.08;18.40;;;;;;;-143.21;57.88;70870.69;5105737;28;20787;-79
2023/07/18 07:11:05;;;;;;;23.88;18.55;;;;;;;-143.21;58.13;70862.75;5112823;28;20207;-79
2023/07/18 07:13:33;;;;;;;23.60;18.52;;;;;;;-143.21;57.86;70844.91;5109077;28;20225;-79
2023/07/18 07:16:00;;;;;;;25.85;20.67;;;;;;;-143.21;58.14;70844.91;5118485;28;20234;-84
2023/07/18 07:18:27;;;;;;;23.23;17.13;;;;;;;-143.21;58.25;70850.88;5111904;28;20215;-80
2023/07/18 07:20:54;;;;;;;21.52;17.58;;;;;;;-143.21;58.34;70840.97;5115943;28;20253;-79
2023/07/18 07:23:22;;;;;;;27.48;18.05;;;;;;;-143.21;58.38;70821.13;5107819;28;20291;-80
2023/07/18 07:25:49;;;;;;;23.00;18.27;;;;;;;-143.21;58.21;70807.25;5119097;28;20593;-81
2023/07/18 07:28:16;;;;;;;24.88;17.80;;;;;;;-143.21;56.87;70805.28;5124911;28;20202;-80
2023/07/18 07:30:43;;;;;;;26.73;19.45;;;;;;;-143.21;57.95;70797.34;5131006;28;20192;-79
2023/07/18 07:33:10;;;;;;;31.45;19.15;;;;;;;-143.21;55.94;70775.53;5128084;27;20677;-81
2023/07/18 07:35:37;;;;;;;33.03;18.67;;;;;;;-143.21;56.51;70747.78;5109560;28;20307;-79
2023/07/18 07:38:04;;;;;;;28.60;19.17;;;;;;;-143.21;55.64;70725.97;5111110;28;20188;-80
2023/07/18 07:40:32;;;;;;;24.55;17.63;;;;;;;-143.21;54.04;70720.03;5111084;28;20585;-80
2023/07/18 07:42:59;;;;;;;27.17;18.85;;;;;;;-143.21;53.49;70716.06;5110896;28;20196;-79
2023/07/18 07:45:26;;;;;;;22.80;17.60;;;;;;;-143.21;54.72;70710.13;5111837;28;20192;-81
2023/07/18 07:47:53;;;;;;;23.67;17.90;;;;;;;-143.21;54.04;70700.22;5108226;28;20687;-81
2023/07/18 07:50:20;;;;;;;28.35;18.23;;;;;;;-143.21;53.19;70680.38;5090633;28;20326;-81
2023/07/18 07:52:47;;;;;;;22.27;17.10;;;;;;;-143.21;53.68;70670.47;5090973;28;20196;-81
2023/07/18 07:55:13;;;;;;;23.88;18.33;;;;;;;-143.21;53.88;70672.47;5092743;28;20563;-81
2023/07/18 07:57:42;;;;;;;21.73;18.05;;;;;;;-143.21;53.54;70658.59;5110529;28;20200;-80
2023/07/18 08:00:10;;;;;;;26.50;18.73;;;;;;;-143.21;53.82;70656.59;5114998;28;20277;-81
2023/07/18 08:02:37;;;;;;;22.52;16.75;;;;;;;-143.21;51.91;70662.56;5114922;28;20283;-80
2023/07/18 08:05:04;;;;;;;19.52;16.48;;;;;;;-143.21;52.74;70666.50;5115334;28;20199;-80
2023/07/18 08:07:31;;;;;;;20.92;16.35;;;;;;;-143.21;53.38;70654.63;5114950;28;20655;-80
2023/07/18 08:09:58;;;;;;;21.73;16.52;;;;;;;-143.21;53.62;70646.69;5114609;28;20200;-79
2023/07/18 08:12:25;;;;;;;22.52;16.90;;;;;;;-143.21;53.07;70650.66;5107509;28;20601;-79
2023/07/18 08:14:53;;;;;;;21.05;16.15;;;;;;;-143.21;53.22;70632.81;5094098;28;20252;-79
2023/07/18 08:17:20;;;;;;;20.90;16.13;;;;;;;-143.21;52.25;70589.22;5114796;28;20852;-80
2023/07/18 08:19:47;;;;;;;18.67;15.50;;;;;;;-143.21;50.54;70561.47;5114589;28;20203;-80
2023/07/18 08:22:14;;;;;;;18.73;15.20;;;;;;;-143.21;50.98;70549.56;5114526;28;20192;-80
2023/07/18 08:24:41;;;;;;;19.15;15.13;;;;;;;-143.21;50.48;70541.63;5114662;28;20192;-80
2023/07/18 08:27:08;;;;;;;22.25;16.00;;;;;;;-143.21;50.33;70533.72;5114578;28;20203;-80
2023/07/18 08:29:35;;;;;;;19.48;15.30;;;;;;;-143.21;48.87;70523.81;5114564;28;20200;-80
2023/07/18 08:32:04;;;;;;;20.33;14.80;;;;;;;-143.21;50.23;70503.97;5114987;28;20195;-80
2023/07/18 08:34:31;;;;;;;22.23;14.70;;;;;;;-143.21;49.17;70503.97;5114400;28;20196;-80
2023/07/18 08:36:58;;;;;;;22.20;14.27;;;;;;;-143.21;49.23;70500.00;5114405;28;20224;-80
2023/07/18 08:39:25;;;;;;;22.02;14.93;;;;;;;-143.21;50.05;70531.72;5113839;28;20645;-81
2023/07/18 08:41:53;;;;;;;21.55;13.77;;;;;;;-143.21;48.47;70519.84;5113416;28;20192;-81
2023/07/18 08:44:20;;;;;;;21.75;14.75;;;;;;;-143.21;47.48;70498.03;5113988;28;20197;-80
2023/07/18 08:46:48;;;;;;;20.02;14.93;;;;;;;-143.21;46.37;70480.19;5115024;28;20211;-80
2023/07/18 08:49:18;;;;;;;17.17;14.07;;;;;;;-143.21;46.85;70464.34;5114684;28;20200;-80
2023/07/18 08:51:45;;;;;;;20.00;14.18;;;;;;;-143.21;46.66;70450.47;5114131;28;20251;-81
2023/07/18 08:54:13;;;;;;;19.52;15.38;;;;;;;-143.21;46.99;70436.59;5114244;27;20200;-81
2023/07/18 08:56:41;;;;;;;21.60;14.43;;;;;;;-143.21;47.03;70446.50;5114040;28;20256;-81
2023/07/18 08:59:08;;;;;;;21.63;16.27;;;;;;;-143.21;46.42;70440.56;5114779;28;20235;-82
2023/07/18 09:01:45;;;;;;;21.25;15.85;;;;;;;-143.21;47.38;70430.66;5115204;28;20200;-82
2023/07/18 09:04:12;;;;;;;21.95;15.38;;;;;;;-143.21;46.62;70426.69;5114653;27;20204;-82
2023/07/18 09:06:47;;;;;;;19.65;15.55;;;;;;;-143.21;46.39;70424.69;5113498;28;20208;-80
2023/07/18 09:09:16;;;;;;;20.58;15.65;;;;;;;-143.21;46.42;70396.94;5114056;28;20188;-80
2023/07/18 09:11:54;;;;;;;23.23;16.52;;;;;;;-143.21;47.02;70385.06;5114073;28;20226;-80
2023/07/18 09:14:26;;;;;;;20.58;15.40;;;;;;;-143.21;46.06;70379.09;5114676;28;20192;-82
2023/07/18 09:16:54;;;;;;;20.13;16.30;;;;;;;-143.21;47.42;70404.88;5114667;28;20212;-82
2023/07/18 09:19:34;;;;;;;24.15;16.65;;;;;;;-143.21;48.66;70446.50;5114165;27;20237;-82
2023/07/18 09:22:09;;;;;;;20.42;16.42;;;;;;;-143.21;48.10;70432.63;5114470;28;20249;-82
2023/07/18 09:24:38;;;;;;;21.02;16.17;;;;;;;-143.21;45.60;70412.81;5113541;28;20195;-82
2023/07/18 09:27:06;;;;;;;19.60;15.73;;;;;;;-143.21;45.42;70408.84;5125927;27;20619;-81
2023/07/18 09:29:33;;;;;;;21.45;16.77;;;;;;;-143.21;47.21;70375.16;5134903;27;20210;-81
2023/07/18 09:32:00;;;;;;;20.75;16.00;;;;;;;-143.21;46.86;70363.25;5134599;27;20607;-81
2023/07/18 09:34:27;;;;;;;20.55;16.45;;;;;;;-143.21;45.58;70375.16;5134407;27;20187;-82
2023/07/18 09:36:59;;;;;;;18.13;16.20;;;;;;;-143.21;46.66;70353.34;5134322;27;20644;-82
2023/07/18 09:39:29;;;;;;;22.55;16.00;;;;;;;-143.21;48.10;70367.22;5134027;27;20196;-81
2023/07/18 09:41:57;;;;;;;21.63;16.45;;;;;;;-143.21;48.40;70385.06;5134016;27;20199;-81
2023/07/18 09:44:26;;;;;;;22.60;16.25;;;;;;;-143.21;45.23;70392.97;5112942;27;20204;-81
2023/07/18 09:46:53;;;;;;;22.75;16.98;;;;;;;-143.21;47.19;70381.09;5113266;28;20206;-81
2023/07/18 09:49:21;;;;;;;20.58;16.48;;;;;;;-143.21;46.40;70343.44;5113766;27;20612;-81
2023/07/18 09:51:58;;;;;;;20.08;17.17;;;;;;;-143.21;45.06;70359.28;5113047;27;20231;-80
2023/07/18 09:54:27;;;;;;;17.88;15.90;;;;;;;-143.21;45.82;70327.56;5112857;28;20184;-81
2023/07/18 09:56:59;;;;;;;16.75;14.88;;;;;;;-143.21;44.11;70325.59;5112791;28;20682;-81
2023/07/18 09:59:27;;;;;;;17.92;14.68;;;;;;;-143.21;44.23;70285.97;5113344;28;20250;-81
2023/07/18 10:01:55;;;;;;;16.73;14.32;;;;;;;-143.21;43.40;70291.91;5113692;28;20639;-81
2023/07/18 10:04:22;;;;;;;21.58;15.38;;;;;;;-143.21;44.63;70266.13;5112868;28;20219;-81
2023/07/18 10:06:51;;;;;;;20.27;14.60;;;;;;;-143.21;41.80;70280.00;5112464;28;20188;-80
2023/07/18 10:09:18;;;;;;;17.38;12.88;;;;;;;-143.21;43.06;70270.09;5110236;28;20283;-81
2023/07/18 10:12:09;;;;;;;19.38;14.88;;;;;;;-143.21;44.75;70274.06;5112322;28;20199;-78
2023/07/18 10:14:52;;;;;;;14.93;12.05;;;;;;;-143.21;41.59;70278.03;5129866;27;20199;-79
2023/07/18 10:17:32;;;;;;;20.40;12.10;;;;;;;-143.21;39.87;70274.06;5092255;28;20205;-79
2023/07/18 10:19:59;;;;;;;13.63;11.50;;;;;;;-143.21;42.76;70270.09;5104113;28;20195;-81
2023/07/18 10:22:27;;;;;;;14.38;12.48;;;;;;;-143.21;42.63;70266.13;5114380;27;20222;-81
2023/07/18 10:24:59;;;;;;;22.05;14.32;;;;;;;-143.21;40.98;70254.25;5133151;27;20204;-81
2023/07/18 10:27:35;;;;;;;16.95;13.45;;;;;;;-143.21;43.13;70232.44;5130739;27;20634;-80
2023/07/18 10:30:04;;;;;;;13.40;10.95;;;;;;;-143.21;40.67;70202.72;5133266;27;20202;-80
2023/07/18 10:32:32;;;;;;;18.50;10.82;;;;;;;-143.21;39.98;70180.91;5132945;27;20554;-80
2023/07/18 10:35:00;;;;;;;13.40;10.88;;;;;;;-143.21;37.56;70180.91;5133155;27;20215;-80
2023/07/18 10:37:27;;;;;;;15.52;10.05;;;;;;;-143.21;39.03;70250.28;5133279;27;20219;-79
2023/07/18 10:39:55;;;;;;;19.92;8.68;;;;;;;-143.21;38.83;70226.50;5133605;27;20248;-79
2023/07/18 10:42:24;;;;;;;10.40;7.70;;;;;;;-143.21;37.48;70172.97;5133595;27;20187;-80
2023/07/18 10:44:56;;;;;;;13.52;8.00;;;;;;;-143.21;36.65;70133.34;5124358;27;20632;-80
2023/07/18 10:47:23;;;;;;;11.32;7.93;;;;;;;-143.21;37.34;70151.19;5112097;28;20203;-81
2023/07/18 10:49:50;;;;;;;12.55;8.32;;;;;;;-143.21;37.16;70133.34;5112105;28;20233;-80
2023/07/18 10:52:18;;;;;;;16.50;8.00;;;;;;;-143.21;36.68;70101.63;5112120;28;20188;-80
2023/07/18 10:54:45;;;;;;;12.88;7.00;;;;;;;-143.21;36.42;70083.81;5111953;28;20192;-80
2023/07/18 10:57:14;;;;;;;10.23;7.82;;;;;;;-143.21;35.07;70109.56;5111598;28;20296;-80
2023/07/18 10:59:43;;;;;;;9.55;7.47;;;;;;;-143.21;34.39;70172.97;5112265;28;20196;-80
2023/07/18 11:02:12;;;;;;;8.80;5.95;;;;;;;-143.21;35.57;70210.63;5111990;28;20200;-80
2023/07/18 11:04:39;;;;;;;9.07;7.20;;;;;;;-143.21;33.82;70171.00;5111314;28;20195;-80